createdAt,value
2019-06-27T00:01:54.605Z,19.83
2019-06-27T00:04:26.202Z,19.66
2019-06-27T00:06:57.581Z,19.60
2019-06-27T00:09:31.924Z,19.55
2019-06-27T00:12:03.208Z,19.49
2019-06-27T00:14:34.577Z,19.45
2019-06-27T00:17:05.975Z,19.42
2019-06-27T00:19:37.298Z,19.48
2019-06-27T00:22:08.571Z,19.39
2019-06-27T00:24:39.870Z,19.39
2019-06-27T00:27:11.148Z,19.31
2019-06-27T00:29:42.455Z,19.22
2019-06-27T00:32:13.764Z,19.19
2019-06-27T00:34:45.056Z,19.15
2019-06-27T00:37:16.318Z,19.13
2019-06-27T00:39:47.630Z,19.12
2019-06-27T00:42:18.972Z,19.10
2019-06-27T00:44:50.246Z,19.08
2019-06-27T00:47:21.552Z,19.06
2019-06-27T00:49:52.841Z,19.03
2019-06-27T00:52:24.082Z,19.08
2019-06-27T00:54:57.631Z,19.04
2019-06-27T00:57:28.881Z,19.00
2019-06-27T01:00:00.143Z,18.86
2019-06-27T01:02:31.350Z,18.86
2019-06-27T01:05:02.583Z,18.77
2019-06-27T01:07:33.974Z,18.67
2019-06-27T01:10:06.105Z,18.56
2019-06-27T01:12:37.307Z,18.43
2019-06-27T01:15:09.369Z,18.33
2019-06-27T01:17:40.625Z,18.32
2019-06-27T01:20:12.144Z,18.33
2019-06-27T01:22:43.395Z,18.26
2019-06-27T01:25:14.698Z,18.21
2019-06-27T01:27:46.000Z,18.08
2019-06-27T01:30:19.313Z,18.02
2019-06-27T01:32:50.561Z,18.06
2019-06-27T01:35:21.921Z,18.09
2019-06-27T01:37:53.228Z,18.10
2019-06-27T01:40:24.475Z,18.04
2019-06-27T01:42:55.732Z,18.00
2019-06-27T01:45:47.143Z,18.01
2019-06-27T01:48:18.410Z,17.99
2019-06-27T01:50:49.664Z,17.95
2019-06-27T01:53:20.927Z,17.96
2019-06-27T01:55:52.204Z,17.98
2019-06-27T01:58:23.496Z,17.99
2019-06-27T02:00:54.812Z,17.93
2019-06-27T02:03:26.081Z,17.94
2019-06-27T02:05:57.336Z,17.98
2019-06-27T02:08:28.555Z,17.94
2019-06-27T02:10:59.808Z,17.83
2019-06-27T02:13:31.073Z,17.88
2019-06-27T02:16:02.382Z,17.79
2019-06-27T02:18:33.950Z,17.79
2019-06-27T02:21:05.194Z,17.75
2019-06-27T02:23:36.445Z,17.66
2019-06-27T02:26:08.036Z,17.69
2019-06-27T02:28:39.270Z,17.69
2019-06-27T02:31:10.428Z,17.74
2019-06-27T02:33:45.715Z,17.71
2019-06-27T02:36:20.554Z,17.62
2019-06-27T02:38:51.802Z,17.58
2019-06-27T02:41:23.020Z,17.61
2019-06-27T02:43:54.380Z,17.64
2019-06-27T02:46:25.780Z,17.56
2019-06-27T02:48:57.113Z,17.50
2019-06-27T02:51:28.409Z,17.53
2019-06-27T02:53:59.705Z,17.48
2019-06-27T02:56:30.987Z,17.44
2019-06-27T02:59:02.314Z,17.40
2019-06-27T03:01:33.631Z,17.40
2019-06-27T03:04:04.978Z,17.44
2019-06-27T03:06:36.285Z,17.40
2019-06-27T03:09:08.101Z,17.44
2019-06-27T03:11:39.379Z,17.36
2019-06-27T03:14:10.691Z,17.34
2019-06-27T03:16:42.183Z,17.39
2019-06-27T03:19:13.563Z,17.35
2019-06-27T03:21:44.877Z,17.35
2019-06-27T03:24:16.209Z,17.30
2019-06-27T03:26:47.514Z,17.30
2019-06-27T03:29:20.418Z,17.27
2019-06-27T03:31:51.851Z,17.37
2019-06-27T03:34:23.181Z,17.35
2019-06-27T03:36:54.969Z,17.29
2019-06-27T03:39:26.244Z,17.37
2019-06-27T03:41:57.529Z,17.35
2019-06-27T03:44:29.067Z,17.29
2019-06-27T03:47:00.336Z,17.29
2019-06-27T03:49:31.694Z,17.33
2019-06-27T03:52:05.582Z,17.34
2019-06-27T03:54:37.170Z,17.32
2019-06-27T03:57:08.480Z,17.31
2019-06-27T03:59:39.894Z,17.35
2019-06-27T04:02:11.224Z,17.35
2019-06-27T04:04:42.560Z,17.36
2019-06-27T04:07:13.874Z,17.27
2019-06-27T04:09:45.178Z,17.27
2019-06-27T04:12:16.545Z,17.37
2019-06-27T04:14:47.882Z,17.34
2019-06-27T04:17:19.234Z,17.33
2019-06-27T04:19:50.905Z,17.36
2019-06-27T04:22:22.329Z,17.37
2019-06-27T04:24:53.734Z,17.34
2019-06-27T04:27:25.102Z,17.43
2019-06-27T04:29:56.373Z,17.47
2019-06-27T04:32:28.526Z,17.47
2019-06-27T04:34:59.967Z,17.48
2019-06-27T04:37:31.420Z,17.40
2019-06-27T04:40:02.730Z,17.40
2019-06-27T04:42:34.028Z,17.36
2019-06-27T04:45:05.722Z,17.48
2019-06-27T04:47:36.986Z,17.50
2019-06-27T04:50:08.479Z,17.55
2019-06-27T04:52:39.812Z,17.51
2019-06-27T04:55:11.117Z,17.54
2019-06-27T04:57:42.409Z,17.57
2019-06-27T05:00:22.188Z,17.65
2019-06-27T05:02:53.459Z,17.64
2019-06-27T05:05:25.148Z,17.70
2019-06-27T05:07:56.461Z,17.67
2019-06-27T05:10:27.739Z,17.70
2019-06-27T05:12:59.055Z,17.73
2019-06-27T05:15:30.392Z,17.71
2019-06-27T05:18:01.667Z,17.79
2019-06-27T05:20:32.973Z,17.90
2019-06-27T05:23:04.323Z,17.86
2019-06-27T05:25:35.639Z,17.82
2019-06-27T05:28:06.920Z,17.87
2019-06-27T05:30:38.235Z,17.89
2019-06-27T05:33:09.514Z,17.96
2019-06-27T05:35:40.753Z,17.94
2019-06-27T05:38:12.071Z,18.06
2019-06-27T05:40:43.340Z,18.07
2019-06-27T05:43:14.651Z,18.22
2019-06-27T05:45:45.935Z,18.25
2019-06-27T05:48:17.231Z,18.25
2019-06-27T05:50:48.482Z,18.29
2019-06-27T05:53:19.763Z,18.36
2019-06-27T05:55:51.205Z,18.39
2019-06-27T05:58:22.508Z,18.43
2019-06-27T06:00:53.768Z,18.56
2019-06-27T06:03:25.094Z,18.68
2019-06-27T06:05:56.351Z,18.81
2019-06-27T06:08:27.619Z,18.83
2019-06-27T06:10:58.971Z,18.89
2019-06-27T06:13:30.264Z,18.86
2019-06-27T06:16:01.695Z,18.87
2019-06-27T06:18:32.985Z,18.85
2019-06-27T06:21:04.275Z,18.93
2019-06-27T06:23:35.530Z,19.05
2019-06-27T06:26:06.858Z,19.13
2019-06-27T06:28:38.179Z,19.16
2019-06-27T06:31:09.498Z,19.16
2019-06-27T06:33:40.833Z,19.19
2019-06-27T06:36:12.191Z,19.20
2019-06-27T06:38:43.501Z,19.20
2019-06-27T06:41:14.876Z,19.15
2019-06-27T06:43:46.179Z,19.14
2019-06-27T06:46:17.484Z,19.08
2019-06-27T06:48:52.104Z,19.18
2019-06-27T06:51:23.411Z,19.26
2019-06-27T06:53:54.681Z,19.41
2019-06-27T06:56:26.226Z,19.52
2019-06-27T06:58:57.518Z,19.69
2019-06-27T07:01:28.836Z,19.91
2019-06-27T07:04:00.111Z,19.91
2019-06-27T07:06:31.422Z,19.83
2019-06-27T07:09:02.742Z,19.87
2019-06-27T07:11:34.010Z,19.97
2019-06-27T07:14:05.295Z,20.05
2019-06-27T07:16:36.657Z,20.19
2019-06-27T07:19:07.936Z,20.30
2019-06-27T07:21:39.262Z,20.30
2019-06-27T07:24:10.567Z,20.34
2019-06-27T07:26:42.062Z,20.31
2019-06-27T07:29:13.329Z,20.45
2019-06-27T07:31:44.656Z,20.53
2019-06-27T07:34:15.977Z,20.62
2019-06-27T07:36:47.255Z,20.72
2019-06-27T07:39:18.649Z,20.79
2019-06-27T07:41:49.968Z,20.92
2019-06-27T07:44:21.241Z,20.97
2019-06-27T07:46:52.543Z,21.07
2019-06-27T07:49:23.819Z,21.13
2019-06-27T07:51:55.168Z,21.29
2019-06-27T07:54:26.514Z,21.58
2019-06-27T07:56:57.793Z,21.67
2019-06-27T07:59:29.121Z,21.81
2019-06-27T08:02:00.598Z,21.95
2019-06-27T08:04:33.271Z,22.19
2019-06-27T08:07:04.622Z,22.33
2019-06-27T08:09:36.007Z,22.46
2019-06-27T08:12:07.345Z,22.49
2019-06-27T08:14:47.930Z,22.61
2019-06-27T08:17:19.220Z,22.79
2019-06-27T08:22:48.856Z,23.08
2019-06-27T08:25:20.383Z,23.20
2019-06-27T08:27:53.741Z,23.27
2019-06-27T08:30:25.160Z,23.43
2019-06-27T08:32:56.449Z,23.61
2019-06-27T08:35:27.710Z,23.77
2019-06-27T08:37:59.034Z,24.02
2019-06-27T08:40:30.328Z,24.10
2019-06-27T08:43:02.623Z,24.10
2019-06-27T08:45:33.868Z,24.16
2019-06-27T08:48:05.199Z,24.36
2019-06-27T08:50:36.486Z,24.54
2019-06-27T08:53:08.362Z,24.65
2019-06-27T08:55:39.657Z,24.72
2019-06-27T08:58:12.670Z,24.77
2019-06-27T09:00:45.942Z,25.12
2019-06-27T09:03:23.973Z,25.29
2019-06-27T09:05:55.382Z,25.49
2019-06-27T09:08:26.808Z,25.81
2019-06-27T09:11:03.687Z,26.00
2019-06-27T09:13:38.549Z,26.14
2019-06-27T09:16:10.997Z,26.20
2019-06-27T09:19:30.543Z,26.23
2019-06-27T09:22:32.003Z,26.30
2019-06-27T09:25:07.704Z,26.49
2019-06-27T09:27:44.526Z,26.51
2019-06-27T09:30:21.064Z,26.93
2019-06-27T09:32:55.496Z,27.03
2019-06-27T09:35:26.968Z,27.16
2019-06-27T09:38:05.045Z,27.28
2019-06-27T09:40:40.131Z,27.55
2019-06-27T09:43:11.870Z,27.67
2019-06-27T09:45:44.113Z,27.65
2019-06-27T09:48:25.993Z,27.77
2019-06-27T09:50:58.604Z,28.00
2019-06-27T09:53:39.803Z,28.10
2019-06-27T09:56:19.219Z,28.16
2019-06-27T09:58:56.333Z,28.26
2019-06-27T10:01:29.530Z,28.13
2019-06-27T10:04:13.601Z,28.36
2019-06-27T10:06:49.412Z,28.86
2019-06-27T10:09:43.689Z,28.98
2019-06-27T10:12:23.622Z,29.00
2019-06-27T10:15:05.984Z,28.97
2019-06-27T10:17:39.572Z,29.01
2019-06-27T10:20:19.546Z,29.14
2019-06-27T10:23:07.817Z,29.54
2019-06-27T10:25:42.206Z,29.63
2019-06-27T10:28:30.721Z,29.76
2019-06-27T10:31:17.018Z,30.06
2019-06-27T10:33:58.609Z,30.30
2019-06-27T10:36:46.355Z,30.51
2019-06-27T10:39:28.965Z,30.55
2019-06-27T10:42:18.439Z,30.63
2019-06-27T10:44:56.125Z,30.79
2019-06-27T10:47:39.083Z,30.85
2019-06-27T10:50:23.418Z,30.78
2019-06-27T10:53:00.151Z,30.77
2019-06-27T10:55:55.741Z,30.86
2019-06-27T10:58:38.420Z,30.90
2019-06-27T11:01:17.814Z,31.14
2019-06-27T11:04:06.499Z,31.25
2019-06-27T11:15:44.431Z,31.33
2019-06-27T11:19:00.974Z,31.54
2019-06-27T11:22:00.116Z,31.78
2019-06-27T11:24:35.209Z,31.93
2019-06-27T11:27:44.685Z,32.10
2019-06-27T11:30:17.850Z,32.21
2019-06-27T11:33:06.406Z,32.29
2019-06-27T11:35:38.104Z,32.26
2019-06-27T11:38:09.388Z,32.26
2019-06-27T11:40:41.117Z,32.46
2019-06-27T11:43:12.497Z,32.49
2019-06-27T11:45:43.874Z,32.65
2019-06-27T11:48:15.197Z,32.65
2019-06-27T11:50:46.487Z,32.78
2019-06-27T11:53:17.787Z,32.69
2019-06-27T11:56:26.818Z,33.08
2019-06-27T11:58:58.161Z,33.39
2019-06-27T12:01:29.927Z,33.47
2019-06-27T12:04:01.405Z,33.41
2019-06-27T12:06:32.745Z,33.49
2019-06-27T12:09:06.504Z,33.57
2019-06-27T12:11:43.919Z,33.63
2019-06-27T12:14:15.260Z,33.64
2019-06-27T12:16:58.935Z,33.66
2019-06-27T12:20:25.800Z,33.69
2019-06-27T12:23:13.136Z,33.86
2019-06-27T12:26:32.439Z,33.95
2019-06-27T12:29:26.113Z,33.66
2019-06-27T12:32:04.825Z,33.81
2019-06-27T12:34:42.386Z,34.16
2019-06-27T12:37:13.710Z,34.10
2019-06-27T12:39:55.921Z,33.90
2019-06-27T12:42:34.608Z,33.88
2019-06-27T12:45:08.441Z,33.84
2019-06-27T12:47:39.830Z,33.67
2019-06-27T12:50:19.303Z,33.65
2019-06-27T12:52:52.104Z,33.62
2019-06-27T12:55:31.388Z,33.85
2019-06-27T12:58:09.336Z,34.05
2019-06-27T13:01:01.407Z,34.00
2019-06-27T13:03:32.908Z,34.12
2019-06-27T13:06:06.915Z,34.21
2019-06-27T13:08:39.716Z,34.45
2019-06-27T13:11:29.330Z,34.62
2019-06-27T13:14:01.355Z,34.92
2019-06-27T13:16:33.856Z,34.79
2019-06-27T13:19:06.234Z,34.88
2019-06-27T13:21:39.595Z,34.97
2019-06-27T13:24:12.617Z,34.99
2019-06-27T13:27:07.966Z,35.24
2019-06-27T13:29:44.608Z,35.17
2019-06-27T13:32:18.537Z,35.02
2019-06-27T13:34:53.401Z,35.20
2019-06-27T13:37:42.882Z,35.42
2019-06-27T13:43:38.021Z,35.16
2019-06-27T13:46:12.972Z,35.29
2019-06-27T13:48:55.787Z,35.21
2019-06-27T13:51:52.419Z,35.06
2019-06-27T13:54:39.514Z,35.16
2019-06-27T13:57:25.094Z,35.24
2019-06-27T14:03:08.798Z,35.15
2019-06-27T14:06:11.037Z,34.79
2019-06-27T14:08:43.319Z,34.72
2019-06-27T14:11:43.474Z,34.63
2019-06-27T14:14:21.872Z,34.76
2019-06-27T14:17:34.993Z,34.76
2019-06-27T14:24:54.459Z,34.45
2019-06-27T14:27:27.303Z,34.64
2019-06-27T14:30:04.645Z,34.76
2019-06-27T14:32:36.908Z,34.78
2019-06-27T14:35:15.493Z,34.75
2019-06-27T14:37:41.829Z,34.90
2019-06-27T14:40:13.706Z,34.89
2019-06-27T14:42:46.464Z,34.72
2019-06-27T14:45:21.430Z,34.60
2019-06-27T14:48:04.849Z,34.69
2019-06-27T14:50:40.474Z,34.80
2019-06-27T14:56:39.954Z,34.60
2019-06-27T14:59:22.748Z,34.46
2019-06-27T15:01:57.433Z,34.18
2019-06-27T15:04:53.792Z,34.15
2019-06-27T15:07:31.456Z,34.14
2019-06-27T15:10:50.835Z,34.01
2019-06-27T15:13:46.206Z,33.90
2019-06-27T15:16:49.475Z,33.84
2019-06-27T15:19:37.955Z,33.75
2019-06-27T15:22:36.413Z,33.71
2019-06-27T15:25:05.613Z,33.71
2019-06-27T15:28:09.746Z,33.60
2019-06-27T15:30:58.925Z,33.56
2019-06-27T15:34:00.459Z,33.38
2019-06-27T15:37:05.628Z,33.27
2019-06-27T15:44:36.745Z,33.21
2019-06-27T15:47:09.232Z,32.84
2019-06-27T15:49:40.598Z,32.71
2019-06-27T15:52:11.936Z,32.61
2019-06-27T15:54:43.221Z,32.43
2019-06-27T15:57:14.590Z,32.17
2019-06-27T15:59:45.891Z,32.07
2019-06-27T16:02:17.222Z,31.84
2019-06-27T16:04:48.518Z,31.73
2019-06-27T16:07:19.859Z,31.51
2019-06-27T16:09:52.741Z,31.33
2019-06-27T16:12:25.240Z,31.31
2019-06-27T16:14:56.552Z,31.24
2019-06-27T16:17:27.887Z,31.27
2019-06-27T16:19:59.174Z,31.16
2019-06-27T16:22:30.500Z,31.07
2019-06-27T16:25:01.807Z,30.94
2019-06-27T16:27:33.153Z,30.80
2019-06-27T16:30:04.829Z,30.60
2019-06-27T16:32:36.100Z,30.53
2019-06-27T16:35:07.565Z,30.45
2019-06-27T16:37:38.839Z,30.28
2019-06-27T16:40:10.942Z,30.19
2019-06-27T16:42:42.288Z,30.01
2019-06-27T16:45:14.383Z,29.86
2019-06-27T16:47:48.444Z,29.60
2019-06-27T16:50:19.267Z,29.42
2019-06-27T16:52:50.621Z,29.37
2019-06-27T16:55:22.354Z,29.28
2019-06-27T16:57:53.664Z,29.12
2019-06-27T17:00:26.159Z,28.99
2019-06-27T17:02:57.496Z,28.98
2019-06-27T17:05:28.904Z,28.92
2019-06-27T17:08:04.501Z,28.79
2019-06-27T17:10:35.866Z,28.63
2019-06-27T17:13:07.220Z,28.48
2019-06-27T17:15:38.565Z,28.32
2019-06-27T17:18:09.908Z,28.24
2019-06-27T17:20:41.244Z,28.03
2019-06-27T17:23:12.580Z,28.00
2019-06-27T17:25:43.966Z,27.93
2019-06-27T17:28:15.278Z,27.78
2019-06-27T17:30:46.701Z,27.72
2019-06-27T17:33:21.007Z,27.62
2019-06-27T17:35:52.277Z,27.56
2019-06-27T17:38:23.624Z,27.42
2019-06-27T17:40:54.971Z,27.31
2019-06-27T17:43:26.354Z,27.30
2019-06-27T17:45:57.665Z,27.20
2019-06-27T17:48:28.975Z,27.22
2019-06-27T17:51:01.129Z,27.12
2019-06-27T17:53:32.453Z,26.99
2019-06-27T17:56:03.905Z,26.86
2019-06-27T17:58:35.205Z,26.79
2019-06-27T18:01:06.535Z,26.63
2019-06-27T18:07:28.220Z,26.53
2019-06-27T18:09:59.694Z,26.33
2019-06-27T18:17:33.439Z,26.13
2019-06-27T18:19:59.605Z,25.99
2019-06-27T18:22:30.992Z,25.73
2019-06-27T18:25:02.413Z,25.63
2019-06-27T18:27:33.755Z,25.52
2019-06-27T18:30:05.548Z,25.49
2019-06-27T18:32:38.355Z,25.50
2019-06-27T18:35:10.105Z,25.37
2019-06-27T18:37:41.426Z,25.25
2019-06-27T18:40:13.155Z,25.17
2019-06-27T18:42:44.497Z,25.14
2019-06-27T18:45:15.818Z,25.09
2019-06-27T18:47:47.227Z,25.06
2019-06-27T18:50:19.219Z,24.94
2019-06-27T18:52:50.588Z,24.79
2019-06-27T18:55:21.876Z,24.72
2019-06-27T18:57:53.154Z,24.70
2019-06-27T19:00:25.218Z,24.58
2019-06-27T19:02:56.528Z,24.49
2019-06-27T19:05:27.838Z,24.40
2019-06-27T19:07:59.158Z,24.31
2019-06-27T19:10:30.534Z,24.23
2019-06-27T19:13:01.829Z,24.12
2019-06-27T19:15:33.152Z,24.07
2019-06-27T19:18:06.144Z,24.01
2019-06-27T19:20:43.524Z,23.87
2019-06-27T19:23:36.714Z,23.72
2019-06-27T19:26:08.053Z,23.56
2019-06-27T19:28:42.283Z,23.38
2019-06-27T19:31:17.118Z,23.24
2019-06-27T19:33:48.421Z,23.18
2019-06-27T19:36:19.806Z,23.04
2019-06-27T19:38:51.147Z,22.90
2019-06-27T19:41:22.429Z,22.68
2019-06-27T19:43:53.789Z,22.60
2019-06-27T19:46:27.818Z,22.47
2019-06-27T19:48:58.241Z,22.51
2019-06-27T19:51:29.870Z,22.34
2019-06-27T19:54:01.181Z,22.34
2019-06-27T19:56:32.498Z,22.21
2019-06-27T19:59:03.858Z,22.12
2019-06-27T20:01:35.186Z,22.03
2019-06-27T20:04:06.502Z,21.86
2019-06-27T20:06:40.513Z,21.78
2019-06-27T20:09:11.905Z,21.63
2019-06-27T20:11:43.213Z,21.63
2019-06-27T20:14:14.491Z,21.55
2019-06-27T20:16:45.799Z,21.41
2019-06-27T20:19:17.109Z,21.38
2019-06-27T20:21:48.416Z,21.28
2019-06-27T20:24:21.906Z,21.14
2019-06-27T20:26:52.729Z,21.06
2019-06-27T20:29:24.114Z,21.01
2019-06-27T20:31:55.415Z,20.97
2019-06-27T20:34:26.727Z,20.81
2019-06-27T20:37:00.401Z,20.86
2019-06-27T20:39:31.669Z,20.78
2019-06-27T20:42:03.042Z,20.74
2019-06-27T20:44:34.386Z,20.58
2019-06-27T20:47:05.705Z,20.57
2019-06-27T20:49:37.068Z,20.52
2019-06-27T20:52:08.366Z,20.45
2019-06-27T20:54:39.684Z,20.41
2019-06-27T20:57:10.976Z,20.31
2019-06-27T20:59:42.230Z,20.23
2019-06-27T21:02:13.507Z,20.07
2019-06-27T21:04:44.787Z,20.09
2019-06-27T21:07:16.094Z,19.99
2019-06-27T21:09:47.354Z,19.94
2019-06-27T21:12:20.472Z,19.94
2019-06-27T21:14:51.707Z,19.81
2019-06-27T21:17:22.973Z,19.77
2019-06-27T21:19:54.516Z,19.80
2019-06-27T21:22:25.789Z,19.70
2019-06-27T21:25:00.584Z,19.58
2019-06-27T21:27:31.918Z,19.50
2019-06-27T21:30:03.258Z,19.46
2019-06-27T21:32:34.631Z,19.38
2019-06-27T21:35:06.239Z,19.28
2019-06-27T21:37:37.540Z,19.25
2019-06-27T21:40:10.596Z,19.17
2019-06-27T21:42:41.895Z,19.22
2019-06-27T21:45:13.584Z,19.11
2019-06-27T21:47:46.162Z,19.05
2019-06-27T21:50:18.878Z,19.00
2019-06-27T21:52:50.174Z,18.93
2019-06-27T21:55:21.487Z,18.85
2019-06-27T21:57:52.772Z,18.85
2019-06-27T22:00:26.427Z,18.94
2019-06-27T22:02:57.715Z,18.77
2019-06-27T22:05:29.037Z,18.64
2019-06-27T22:08:00.445Z,18.65
2019-06-27T22:10:31.794Z,18.62
2019-06-27T22:13:03.115Z,18.46
2019-06-27T22:15:34.485Z,18.51
2019-06-27T22:18:05.802Z,18.36
2019-06-27T22:20:39.575Z,18.33
2019-06-27T22:23:10.170Z,18.24
2019-06-27T22:25:41.462Z,18.18
2019-06-27T22:28:12.736Z,18.06
2019-06-27T22:30:44.081Z,17.97
2019-06-27T22:33:15.403Z,17.98
2019-06-27T22:35:46.709Z,17.92
2019-06-27T22:38:35.880Z,17.77
2019-06-27T22:41:24.747Z,17.77
2019-06-27T22:44:14.142Z,17.68
2019-06-27T22:47:02.925Z,17.63
2019-06-27T22:49:33.462Z,17.64
2019-06-27T22:52:23.131Z,17.53
2019-06-27T22:54:57.798Z,17.53
2019-06-27T22:57:29.097Z,17.50
2019-06-27T23:00:00.400Z,17.42
2019-06-27T23:02:31.681Z,17.38
2019-06-27T23:05:02.910Z,17.39
2019-06-27T23:07:34.160Z,17.35
2019-06-27T23:10:05.627Z,17.25
2019-06-27T23:12:36.867Z,17.19
2019-06-27T23:15:08.472Z,17.09
2019-06-27T23:17:39.715Z,17.08
2019-06-27T23:20:11.541Z,17.05
2019-06-27T23:22:42.876Z,17.03
2019-06-27T23:25:14.166Z,17.05
2019-06-27T23:27:45.431Z,16.96
2019-06-27T23:30:16.711Z,16.96
2019-06-27T23:32:48.008Z,16.85
2019-06-27T23:35:19.326Z,16.84
2019-06-27T23:37:50.625Z,16.84
2019-06-27T23:40:22.219Z,16.79
2019-06-27T23:42:53.513Z,16.76
2019-06-27T23:45:24.834Z,16.80
2019-06-27T23:47:56.102Z,16.74
2019-06-27T23:50:27.391Z,16.68
2019-06-27T23:52:58.708Z,16.64
2019-06-27T23:55:30.032Z,16.57
2019-06-27T23:58:01.316Z,16.59
